Time;durP1;ratioP1;P1;durP2;ratioP2;P2;SDS_P1;SDS_P2;PMS_P1;PMS_P2;Temp;Humidity;BMP_temperature;BMP_pressure;BME280_temperature;BME280_humidity;BME280_pressure;Samples;Min_cycle;Max_cycle;Signal;HPM_P1;HPM_P2
2023/10/29 00:02:11;;;;;;;6.57;4.67;;;;;;;9.57;100.00;99948.80;1460076;89;22518;-80
2023/10/29 00:04:37;;;;;;;7.43;5.30;;;;;;;9.61;100.00;99950.13;1451198;89;21458;-79
2023/10/29 00:07:04;;;;;;;9.70;5.50;;;;;;;9.61;100.00;99954.09;1455243;89;21495;-81
2023/10/29 00:09:31;;;;;;;6.73;4.87;;;;;;;9.61;100.00;99958.06;1455959;89;21496;-81
2023/10/29 00:11:58;;;;;;;7.70;5.10;;;;;;;9.61;100.00;99950.13;1437879;89;21473;-80
2023/10/29 00:14:25;;;;;;;12.07;5.40;;;;;;;9.57;100.00;99950.94;1449413;89;22270;-79
2023/10/29 00:16:51;;;;;;;6.40;4.70;;;;;;;9.53;100.00;99944.81;1459194;89;21495;-81
2023/10/29 00:19:17;;;;;;;7.50;5.23;;;;;;;9.48;100.00;99947.40;1455432;89;22418;-80
2023/10/29 00:21:44;;;;;;;9.83;4.63;;;;;;;9.43;100.00;99953.63;1454994;89;21591;-80
2023/10/29 00:24:10;;;;;;;8.27;5.53;;;;;;;9.37;100.00;99958.19;1460208;89;21465;-80
2023/10/29 00:26:36;;;;;;;8.87;5.93;;;;;;;9.33;100.00;99964.77;1459246;89;22277;-80
2023/10/29 00:29:02;;;;;;;5.67;4.97;;;;;;;9.31;100.00;99964.58;1431749;89;21472;-81
2023/10/29 00:31:29;;;;;;;7.00;5.67;;;;;;;9.24;100.00;99967.00;1433865;89;21553;-79
2023/10/29 00:33:55;;;;;;;5.50;4.63;;;;;;;9.16;100.00;99967.73;1460436;89;22485;-80
2023/10/29 00:36:21;;;;;;;8.27;4.43;;;;;;;9.09;100.00;99968.48;1453969;89;21458;-79
2023/10/29 00:38:47;;;;;;;4.67;3.17;;;;;;;9.02;100.00;99972.21;1439737;89;21458;-78
2023/10/29 00:41:14;;;;;;;7.53;3.73;;;;;;;8.94;100.00;99969.48;1455386;89;21436;-78
2023/10/29 00:43:40;;;;;;;9.17;4.97;;;;;;;8.86;100.00;99975.52;1453925;89;21516;-80
2023/10/29 00:46:08;;;;;;;7.93;5.43;;;;;;;8.74;100.00;99977.98;1448679;89;22279;-80
2023/10/29 00:48:34;;;;;;;7.63;4.90;;;;;;;8.65;100.00;99975.73;1437063;89;21576;-80
2023/10/29 00:51:01;;;;;;;7.60;5.10;;;;;;;8.60;100.00;99972.70;1451094;89;22417;-79
2023/10/29 00:53:29;;;;;;;6.87;4.20;;;;;;;8.54;100.00;99975.43;1451610;89;21406;-80
2023/10/29 00:55:56;;;;;;;7.60;4.77;;;;;;;8.50;100.00;99979.34;1457186;89;21635;-79
2023/10/29 00:58:24;;;;;;;13.27;4.70;;;;;;;8.43;100.00;99982.23;1458522;89;21450;-79
2023/10/29 01:00:50;;;;;;;6.03;4.57;;;;;;;8.36;100.00;99989.02;1456882;89;21547;-79
2023/10/29 01:03:18;;;;;;;7.13;4.40;;;;;;;8.31;100.00;99989.44;1455233;89;21502;-78
2023/10/29 01:05:48;;;;;;;10.03;5.30;;;;;;;8.29;100.00;99980.03;1458215;89;21702;-80
2023/10/29 01:08:15;;;;;;;7.73;6.13;;;;;;;8.27;100.00;99983.30;1450111;89;21517;-81
2023/10/29 01:10:41;;;;;;;19.40;7.33;;;;;;;8.21;100.00;99980.74;1455270;89;21457;-80
2023/10/29 01:13:08;;;;;;;16.50;7.13;;;;;;;8.14;100.00;99977.86;1458772;89;21524;-79
2023/10/29 01:15:35;;;;;;;12.40;8.50;;;;;;;8.04;100.00;99974.39;1459444;89;21479;-80
2023/10/29 01:18:01;;;;;;;11.43;7.00;;;;;;;7.97;100.00;99981.22;1458808;89;21443;-80
2023/10/29 01:20:28;;;;;;;14.60;9.87;;;;;;;7.95;100.00;99988.92;1443787;89;21509;-79
2023/10/29 01:22:54;;;;;;;13.93;8.67;;;;;;;7.92;100.00;99982.12;1452148;89;21554;-79
2023/10/29 01:25:21;;;;;;;17.90;8.63;;;;;;;7.93;100.00;99979.83;1456603;89;22015;-80
2023/10/29 01:27:47;;;;;;;20.80;9.43;;;;;;;7.93;100.00;99987.73;1448032;89;22405;-79
2023/10/29 01:30:13;;;;;;;26.43;10.50;;;;;;;7.92;100.00;99997.94;1460149;89;21443;-79
2023/10/29 01:32:40;;;;;;;13.13;8.20;;;;;;;7.93;100.00;100004.86;1462765;89;21606;-79
2023/10/29 01:35:07;;;;;;;22.23;9.03;;;;;;;7.92;100.00;100005.84;1439503;89;22379;-80
2023/10/29 01:37:33;;;;;;;17.43;9.17;;;;;;;7.90;100.00;100006.45;1451942;89;21473;-79
2023/10/29 01:39:59;;;;;;;10.33;6.77;;;;;;;7.89;100.00;100004.81;1461030;89;22367;-79
2023/10/29 01:42:26;;;;;;;14.27;9.10;;;;;;;7.90;100.00;100005.14;1461400;89;21471;-81
2023/10/29 01:44:52;;;;;;;12.93;7.30;;;;;;;7.92;100.00;99996.62;1455764;89;22205;-80
2023/10/29 01:47:18;;;;;;;19.93;5.23;;;;;;;7.90;100.00;99992.80;1453858;89;21604;-80
2023/10/29 01:49:44;;;;;;;13.23;5.80;;;;;;;7.88;100.00;99998.72;1456415;89;21465;-79
2023/10/29 01:52:10;;;;;;;6.93;5.27;;;;;;;7.86;100.00;100005.09;1455025;89;22300;-79
2023/10/29 01:54:37;;;;;;;7.67;5.90;;;;;;;7.85;100.00;99992.87;1435758;89;21651;-79
2023/10/29 01:57:04;;;;;;;5.80;5.03;;;;;;;7.85;100.00;99987.14;1455394;89;21457;-79
2023/10/29 01:59:31;;;;;;;6.40;5.37;;;;;;;7.89;100.00;99985.05;1455828;89;21436;-81
2023/10/29 02:01:57;;;;;;;5.37;4.10;;;;;;;7.92;100.00;99982.12;1454449;89;21635;-80
2023/10/29 02:04:27;;;;;;;4.73;4.23;;;;;;;7.95;100.00;99975.25;1428034;89;23291;-80
2023/10/29 02:06:54;;;;;;;6.77;4.50;;;;;;;8.01;100.00;99973.37;1425678;89;21517;-79
2023/10/29 02:09:20;;;;;;;5.03;4.53;;;;;;;8.05;100.00;99970.77;1429367;89;21642;-79
2023/10/29 02:11:47;;;;;;;9.17;5.37;;;;;;;8.10;100.00;99983.05;1459713;89;22405;-79
2023/10/29 02:14:13;;;;;;;10.93;5.53;;;;;;;8.12;100.00;99990.34;1436574;89;21442;-80
2023/10/29 02:16:39;;;;;;;8.60;5.33;;;;;;;8.11;100.00;99987.37;1462867;89;21464;-80
2023/10/29 02:19:05;;;;;;;6.00;5.40;;;;;;;8.11;100.00;99988.69;1460512;89;22286;-80
2023/10/29 02:21:33;;;;;;;7.97;5.40;;;;;;;8.14;100.00;99989.72;1461231;89;21449;-80
2023/10/29 02:24:01;;;;;;;8.97;6.47;;;;;;;8.22;100.00;99996.06;1449042;89;21510;-79
2023/10/29 02:26:28;;;;;;;8.87;5.77;;;;;;;8.27;100.00;100009.16;1456025;89;21406;-80
2023/10/29 02:28:54;;;;;;;9.70;5.73;;;;;;;8.31;100.00;100008.38;1435422;89;22417;-79
2023/10/29 02:31:21;;;;;;;7.60;6.03;;;;;;;8.35;100.00;100001.87;1457175;89;21450;-79
2023/10/29 02:33:47;;;;;;;7.17;5.97;;;;;;;8.43;100.00;99996.74;1458832;89;21472;-80
2023/10/29 02:36:14;;;;;;;8.80;6.70;;;;;;;8.54;100.00;100004.94;1455723;89;21473;-80
2023/10/29 02:38:43;;;;;;;6.83;6.13;;;;;;;8.63;100.00;100008.05;1461656;89;21524;-80
2023/10/29 02:41:10;;;;;;;8.07;6.43;;;;;;;8.68;100.00;100007.10;1443627;89;21472;-78
2023/10/29 02:43:41;;;;;;;9.30;7.03;;;;;;;8.73;100.00;100001.41;1436003;89;21487;-79
2023/10/29 02:46:07;;;;;;;;;;;;;;;8.76;100.00;99997.15;1456930;89;22337;-79
2023/10/29 02:48:33;;;;;;;8.80;7.70;;;;;;;8.78;100.00;100003.13;1464805;89;20263;-80
2023/10/29 02:50:59;;;;;;;11.27;8.77;;;;;;;8.79;100.00;100004.77;1456991;89;21568;-81
2023/10/29 02:53:25;;;;;;;8.80;7.57;;;;;;;8.78;100.00;100009.22;1438194;89;21399;-80
2023/10/29 02:55:52;;;;;;;9.73;7.77;;;;;;;8.78;100.00;100016.31;1467815;89;21443;-79
2023/10/29 02:58:18;;;;;;;9.33;7.30;;;;;;;8.80;100.00;100006.42;1460100;89;21472;-80
2023/10/29 03:00:44;;;;;;;8.00;7.17;;;;;;;8.84;100.00;100006.48;1432189;89;21539;-78
2023/10/29 03:03:10;;;;;;;7.27;6.23;;;;;;;8.89;100.00;100005.56;1460085;89;22381;-79
2023/10/29 03:05:37;;;;;;;11.60;6.50;;;;;;;8.90;100.00;100008.54;1433836;89;21576;-80
2023/10/29 03:08:04;;;;;;;7.03;6.13;;;;;;;8.91;100.00;100012.00;1465575;89;21508;-80
2023/10/29 03:10:32;;;;;;;8.67;5.97;;;;;;;8.95;100.00;100024.77;1461105;89;21665;-80
2023/10/29 03:12:59;;;;;;;6.83;5.70;;;;;;;8.96;100.00;100030.37;1456032;89;22471;-80
2023/10/29 03:15:26;;;;;;;6.13;5.53;;;;;;;8.96;100.00;100034.34;1459593;89;21487;-80
2023/10/29 03:17:52;;;;;;;8.37;5.97;;;;;;;8.98;100.00;100035.03;1458172;89;22477;-79
2023/10/29 03:20:19;;;;;;;9.50;6.00;;;;;;;9.00;100.00;100040.14;1461745;89;21580;-81
2023/10/29 03:22:45;;;;;;;7.33;5.53;;;;;;;9.03;100.00;100046.45;1454984;89;21638;-79
2023/10/29 03:25:11;;;;;;;8.80;5.50;;;;;;;9.06;100.00;100050.61;1443774;89;21443;-79
2023/10/29 03:27:37;;;;;;;7.90;6.40;;;;;;;9.05;100.00;100062.98;1436673;89;21451;-79
2023/10/29 03:30:06;;;;;;;9.07;5.90;;;;;;;9.03;100.00;100062.29;1459520;89;21657;-81
2023/10/29 03:32:32;;;;;;;16.77;6.73;;;;;;;9.01;100.00;100058.49;1460690;89;22522;-79
2023/10/29 03:34:58;;;;;;;7.40;6.70;;;;;;;8.98;100.00;100056.64;1458884;89;21465;-79
2023/10/29 03:37:25;;;;;;;7.93;6.63;;;;;;;8.98;100.00;100058.79;1468086;89;21649;-80
2023/10/29 03:39:51;;;;;;;10.47;5.97;;;;;;;8.99;100.00;100061.76;1458859;89;22256;-80
2023/10/29 03:42:17;;;;;;;8.47;5.70;;;;;;;9.02;100.00;100063.28;1459743;89;21472;-80
2023/10/29 03:44:43;;;;;;;17.97;6.03;;;;;;;9.03;100.00;100056.55;1470867;89;21421;-79
2023/10/29 03:47:09;;;;;;;11.70;6.10;;;;;;;9.10;100.00;100037.48;1468212;89;21587;-80
2023/10/29 03:49:35;;;;;;;9.47;6.40;;;;;;;9.12;100.00;100037.67;1461067;89;21458;-79
2023/10/29 03:52:02;;;;;;;10.40;7.17;;;;;;;9.15;100.00;100025.95;1464328;89;21421;-80
2023/10/29 03:54:29;;;;;;;10.13;7.10;;;;;;;9.15;100.00;100034.73;1462518;89;22409;-81
2023/10/29 03:56:55;;;;;;;18.10;7.87;;;;;;;9.14;100.00;100033.55;1463530;89;21436;-80
2023/10/29 03:59:21;;;;;;;22.40;8.07;;;;;;;9.14;100.00;100032.23;1462956;89;21627;-78
2023/10/29 04:01:47;;;;;;;27.33;7.40;;;;;;;9.10;100.00;100040.94;1457160;89;21642;-81
2023/10/29 04:04:15;;;;;;;18.27;6.07;;;;;;;9.07;100.00;100041.73;1458284;89;21451;-79
2023/10/29 04:06:43;;;;;;;11.53;5.83;;;;;;;9.05;100.00;100033.95;1454760;89;21494;-79
2023/10/29 04:09:09;;;;;;;13.03;6.67;;;;;;;9.02;100.00;100036.39;1460590;89;21510;-80
2023/10/29 04:11:37;;;;;;;11.20;5.27;;;;;;;9.03;100.00;100034.11;1460060;89;21524;-79
2023/10/29 04:14:03;;;;;;;13.77;6.03;;;;;;;9.00;100.00;100026.95;1466154;89;21419;-79
2023/10/29 04:16:29;;;;;;;12.60;6.10;;;;;;;8.98;100.00;100034.20;1460096;89;22404;-79
2023/10/29 04:18:55;;;;;;;11.97;5.93;;;;;;;8.96;100.00;100031.70;1458057;89;21458;-79
2023/10/29 04:21:21;;;;;;;22.70;6.30;;;;;;;8.95;100.00;100035.33;1453770;89;22264;-79
2023/10/29 04:23:47;;;;;;;17.83;6.03;;;;;;;8.91;100.00;100032.62;1438939;89;21614;-80
2023/10/29 04:26:13;;;;;;;11.50;5.97;;;;;;;8.87;100.00;100037.03;1436949;89;21495;-80
2023/10/29 04:28:40;;;;;;;14.20;7.07;;;;;;;8.86;100.00;100042.81;1465234;89;22426;-80
2023/10/29 04:31:06;;;;;;;10.20;6.30;;;;;;;8.85;100.00;100045.08;1455687;89;21547;-80
2023/10/29 04:33:32;;;;;;;7.17;5.83;;;;;;;8.89;100.00;100045.62;1436152;89;21414;-79
2023/10/29 04:36:00;;;;;;;11.47;6.60;;;;;;;8.92;100.00;100043.54;1461512;89;21657;-79
2023/10/29 04:38:26;;;;;;;12.50;5.53;;;;;;;8.94;100.00;100042.88;1450598;89;21546;-80
2023/10/29 04:40:52;;;;;;;15.30;5.73;;;;;;;8.96;100.00;100040.94;1437288;89;21457;-79
2023/10/29 04:43:18;;;;;;;13.70;6.10;;;;;;;8.99;100.00;100045.09;1458785;89;21532;-79
2023/10/29 04:45:44;;;;;;;11.47;6.73;;;;;;;9.00;100.00;100042.30;1447731;89;21480;-80
2023/10/29 04:48:10;;;;;;;11.40;6.10;;;;;;;9.00;100.00;100044.11;1432627;89;21465;-79
2023/10/29 04:50:36;;;;;;;14.30;6.67;;;;;;;8.99;100.00;100044.60;1452810;89;22337;-80
2023/10/29 04:53:03;;;;;;;15.43;5.83;;;;;;;8.99;100.00;100041.96;1457175;89;21620;-80
2023/10/29 04:55:29;;;;;;;7.67;5.77;;;;;;;8.98;100.00;100040.31;1454862;89;21466;-80
2023/10/29 04:57:57;;;;;;;8.10;6.67;;;;;;;8.96;100.00;100042.26;1438066;89;22433;-79
2023/10/29 05:00:24;;;;;;;7.73;6.27;;;;;;;8.94;100.00;100046.84;1457819;89;21450;-78
2023/10/29 05:02:50;;;;;;;9.10;6.73;;;;;;;8.97;100.00;100058.92;1454141;89;21600;-80
2023/10/29 05:05:17;;;;;;;12.63;7.50;;;;;;;8.99;100.00;100055.16;1431474;89;21465;-79
2023/10/29 05:07:44;;;;;;;14.10;7.20;;;;;;;9.00;100.00;100054.17;1467870;89;21436;-81
2023/10/29 05:10:13;;;;;;;11.43;7.67;;;;;;;9.01;100.00;100055.85;1441522;89;21673;-78
2023/10/29 05:12:40;;;;;;;22.90;6.63;;;;;;;9.03;100.00;100053.05;1456965;89;22192;-78
2023/10/29 05:15:08;;;;;;;13.40;7.20;;;;;;;9.00;100.00;100042.30;1436410;89;21413;-80
2023/10/29 05:17:34;;;;;;;21.07;7.30;;;;;;;8.99;100.00;100041.96;1449147;89;22390;-81
2023/10/29 05:20:01;;;;;;;8.30;7.00;;;;;;;8.97;100.00;100043.91;1461732;89;21524;-81
2023/10/29 05:22:27;;;;;;;8.40;7.50;;;;;;;8.98;100.00;100052.19;1435274;89;21495;-82
2023/10/29 05:24:53;;;;;;;9.83;7.73;;;;;;;8.95;100.00;100067.00;1431206;89;22351;-81
2023/10/29 05:27:19;;;;;;;9.57;8.53;;;;;;;8.93;100.00;100066.30;1452221;89;21436;-82
2023/10/29 05:29:46;;;;;;;10.20;8.97;;;;;;;8.94;100.00;100067.95;1455832;89;21471;-81
2023/10/29 05:32:12;;;;;;;9.57;7.97;;;;;;;8.95;100.00;100074.09;1458477;89;22477;-80
2023/10/29 05:34:39;;;;;;;8.60;7.70;;;;;;;8.95;100.00;100085.48;1453211;89;22359;-80
2023/10/29 05:37:05;;;;;;;8.50;7.60;;;;;;;8.96;100.00;100083.17;1454033;89;21443;-80
2023/10/29 05:39:32;;;;;;;9.43;8.53;;;;;;;8.96;100.00;100084.98;1460262;89;21465;-81
2023/10/29 05:41:58;;;;;;;9.60;8.60;;;;;;;8.94;100.00;100079.83;1433222;89;21495;-80
2023/10/29 05:44:24;;;;;;;9.80;8.77;;;;;;;8.93;100.00;100082.14;1457034;89;21420;-80
2023/10/29 05:46:50;;;;;;;8.53;7.63;;;;;;;8.92;100.00;100073.89;1456814;89;21465;-80
2023/10/29 05:49:17;;;;;;;8.10;7.30;;;;;;;8.92;100.00;100070.39;1459281;89;22522;-80
2023/10/29 05:51:44;;;;;;;8.83;7.87;;;;;;;8.95;100.00;100077.56;1454786;89;21429;-80
2023/10/29 05:54:10;;;;;;;8.07;7.27;;;;;;;9.01;100.00;100091.48;1449800;89;21421;-80
2023/10/29 05:56:36;;;;;;;8.53;7.63;;;;;;;9.08;100.00;100092.22;1459496;89;22411;-79
2023/10/29 05:59:02;;;;;;;8.33;7.50;;;;;;;9.13;100.00;100097.41;1464224;89;22002;-80
2023/10/29 06:01:28;;;;;;;9.00;7.60;;;;;;;9.20;100.00;100101.60;1447269;89;21613;-80
2023/10/29 06:03:56;;;;;;;9.37;8.13;;;;;;;9.24;100.00;100109.59;1459790;89;22513;-81
2023/10/29 06:06:22;;;;;;;8.97;7.67;;;;;;;9.28;100.00;100099.06;1461209;89;21495;-79
2023/10/29 06:08:49;;;;;;;9.53;8.50;;;;;;;9.34;100.00;100095.83;1453312;89;21435;-79
2023/10/29 06:11:15;;;;;;;9.43;8.43;;;;;;;9.41;100.00;100106.66;1448798;89;21524;-78
2023/10/29 06:13:43;;;;;;;9.83;8.83;;;;;;;9.44;100.00;100097.94;1458173;89;21829;-80
2023/10/29 06:16:10;;;;;;;9.87;8.87;;;;;;;9.48;100.00;100090.05;1449282;89;22337;-78
2023/10/29 06:18:36;;;;;;;12.07;8.97;;;;;;;9.53;100.00;100096.71;1462752;89;21428;-80
2023/10/29 06:21:03;;;;;;;10.20;8.87;;;;;;;9.55;100.00;100102.66;1458735;89;22625;-79
2023/10/29 06:23:29;;;;;;;10.30;9.03;;;;;;;9.55;100.00;100093.41;1465811;89;22592;-78
2023/10/29 06:25:55;;;;;;;10.67;9.10;;;;;;;9.56;100.00;100092.45;1443281;89;21450;-79
2023/10/29 06:28:22;;;;;;;11.93;9.27;;;;;;;9.58;100.00;100096.61;1460753;89;21473;-79
2023/10/29 06:30:48;;;;;;;11.53;9.00;;;;;;;9.63;100.00;100091.69;1460628;89;22345;-78
2023/10/29 06:33:14;;;;;;;14.30;11.87;;;;;;;9.70;100.00;100093.26;1458414;89;21686;-80
2023/10/29 06:35:40;;;;;;;16.87;13.30;;;;;;;9.76;100.00;100101.08;1458931;89;21399;-79
2023/10/29 06:38:07;;;;;;;16.03;13.77;;;;;;;9.83;100.00;100114.02;1450270;89;22270;-79
2023/10/29 06:40:33;;;;;;;17.70;13.23;;;;;;;9.89;100.00;100113.41;1451418;89;21650;-80
2023/10/29 06:42:59;;;;;;;20.67;17.43;;;;;;;9.96;100.00;100106.55;1438295;89;21509;-79
2023/10/29 06:45:25;;;;;;;21.87;15.30;;;;;;;10.00;100.00;100104.44;1446721;89;22375;-79
2023/10/29 06:47:51;;;;;;;20.17;14.20;;;;;;;10.09;100.00;100114.09;1433470;89;21576;-80
2023/10/29 06:50:18;;;;;;;16.20;12.43;;;;;;;10.20;100.00;100120.47;1459713;89;21472;-80
2023/10/29 06:52:44;;;;;;;15.90;11.37;;;;;;;10.35;100.00;100120.78;1458796;89;21642;-81
2023/10/29 06:55:12;;;;;;;14.57;10.30;;;;;;;10.57;100.00;100126.08;1459295;89;21347;-80
2023/10/29 06:57:38;;;;;;;13.17;10.37;;;;;;;10.77;100.00;100126.21;1437528;89;21579;-80
2023/10/29 07:00:07;;;;;;;12.20;10.13;;;;;;;10.96;100.00;100129.14;1441378;89;21479;-83
2023/10/29 07:02:34;;;;;;;12.40;10.33;;;;;;;11.14;100.00;100129.06;1458021;89;21524;-82
2023/10/29 07:05:02;;;;;;;11.80;9.80;;;;;;;11.24;100.00;100123.13;1458341;89;21435;-83
2023/10/29 07:07:29;;;;;;;14.17;10.70;;;;;;;11.39;100.00;100137.92;1457507;89;21510;-81
2023/10/29 07:09:56;;;;;;;11.40;9.37;;;;;;;11.52;100.00;100141.46;1457755;89;21531;-82
2023/10/29 07:12:23;;;;;;;14.07;9.07;;;;;;;11.63;100.00;100138.52;1437556;89;21532;-82
2023/10/29 07:14:49;;;;;;;10.93;8.57;;;;;;;11.76;100.00;100142.02;1455891;89;21399;-81
2023/10/29 07:17:15;;;;;;;15.53;8.63;;;;;;;11.90;100.00;100143.25;1435790;89;21443;-82
2023/10/29 07:19:41;;;;;;;11.63;8.60;;;;;;;12.00;100.00;100141.28;1444997;89;21509;-79
2023/10/29 07:22:08;;;;;;;12.10;8.10;;;;;;;12.05;100.00;100147.41;1462641;89;22323;-82
2023/10/29 07:24:35;;;;;;;12.70;9.07;;;;;;;12.15;100.00;100150.25;1426701;89;22589;-82
2023/10/29 07:27:03;;;;;;;12.60;8.20;;;;;;;12.30;100.00;100144.28;1453815;89;21435;-82
2023/10/29 07:29:29;;;;;;;13.40;8.30;;;;;;;12.46;100.00;100140.78;1458076;89;22472;-80
2023/10/29 07:31:56;;;;;;;10.90;8.70;;;;;;;12.55;100.00;100141.14;1457407;89;21478;-81
2023/10/29 07:34:22;;;;;;;14.37;8.93;;;;;;;12.63;100.00;100138.48;1445465;89;21590;-81
2023/10/29 07:36:49;;;;;;;12.97;9.50;;;;;;;12.77;100.00;100135.61;1444437;89;21451;-80
2023/10/29 07:39:15;;;;;;;12.23;8.80;;;;;;;12.88;100.00;100133.42;1441041;89;22477;-79
2023/10/29 07:41:41;;;;;;;13.47;8.80;;;;;;;12.97;100.00;100134.73;1440766;89;21435;-80
2023/10/29 07:44:07;;;;;;;13.53;7.87;;;;;;;13.08;100.00;100137.03;1453391;89;21731;-80
2023/10/29 07:46:34;;;;;;;10.67;6.77;;;;;;;13.14;100.00;100138.17;1457912;89;21445;-79
2023/10/29 07:49:01;;;;;;;13.00;6.97;;;;;;;13.22;100.00;100139.48;1441705;89;22286;-80
2023/10/29 07:51:27;;;;;;;13.17;6.80;;;;;;;13.28;100.00;100131.67;1454500;89;21458;-79
2023/10/29 07:53:53;;;;;;;11.67;6.73;;;;;;;13.42;100.00;100135.44;1461006;89;21487;-81
2023/10/29 07:56:20;;;;;;;11.53;6.00;;;;;;;13.51;100.00;100135.73;1452757;89;22374;-81
2023/10/29 07:58:47;;;;;;;10.67;5.80;;;;;;;13.67;100.00;100143.31;1441061;89;21649;-79
2023/10/29 08:01:16;;;;;;;7.70;5.33;;;;;;;13.79;100.00;100147.22;1453973;89;21457;-80
2023/10/29 08:03:45;;;;;;;13.47;6.87;;;;;;;13.89;100.00;100141.16;1457734;89;21480;-79
2023/10/29 08:06:13;;;;;;;18.10;6.83;;;;;;;14.03;100.00;100145.41;1386269;89;21540;-81
2023/10/29 08:08:39;;;;;;;13.47;7.10;;;;;;;14.18;100.00;100139.63;1539884;89;22339;-79
2023/10/29 08:11:06;;;;;;;11.97;5.60;;;;;;;14.34;100.00;100140.02;1382904;89;21525;-80
2023/10/29 08:13:32;;;;;;;9.77;5.90;;;;;;;14.50;100.00;100137.23;1383181;89;21407;-80
2023/10/29 08:15:59;;;;;;;9.23;6.00;;;;;;;14.62;100.00;100138.48;1383083;89;21450;-81
2023/10/29 08:18:25;;;;;;;12.80;5.00;;;;;;;14.73;100.00;100141.20;1381969;89;21399;-80
2023/10/29 08:20:51;;;;;;;7.10;5.43;;;;;;;14.86;100.00;100140.06;1382890;89;21499;-80
2023/10/29 08:23:17;;;;;;;12.33;6.17;;;;;;;14.98;100.00;100140.43;1383158;89;21392;-82
2023/10/29 08:25:43;;;;;;;15.57;7.27;;;;;;;15.01;100.00;100140.06;1383084;89;21517;-80
2023/10/29 08:28:10;;;;;;;11.00;5.90;;;;;;;15.05;100.00;100135.22;1388580;89;21459;-78
2023/10/29 08:30:36;;;;;;;12.73;5.53;;;;;;;15.16;100.00;100142.72;1382997;89;21318;-81
2023/10/29 08:33:03;;;;;;;10.03;6.33;;;;;;;15.26;100.00;100146.46;1382045;89;21436;-81
2023/10/29 08:35:29;;;;;;;10.70;5.73;;;;;;;15.33;100.00;100153.55;1382848;89;22279;-79
2023/10/29 08:37:56;;;;;;;12.50;5.43;;;;;;;15.39;100.00;100159.13;1382994;89;21436;-81
2023/10/29 08:40:23;;;;;;;14.40;6.70;;;;;;;15.46;100.00;100157.39;1367249;91;22434;-80
2023/10/29 08:42:49;;;;;;;31.10;16.67;;;;;;;15.49;100.00;100151.68;1431608;89;21384;-81
2023/10/29 08:45:15;;;;;;;9.57;6.30;;;;;;;15.61;100.00;100148.84;1383593;89;21443;-79
2023/10/29 08:47:41;;;;;;;9.70;5.30;;;;;;;15.75;100.00;100141.86;1383282;89;22228;-81
2023/10/29 08:50:11;;;;;;;10.70;5.83;;;;;;;15.79;100.00;100145.31;1383230;89;21317;-81
2023/10/29 08:52:37;;;;;;;12.90;6.03;;;;;;;15.87;100.00;100153.69;1379522;89;21458;-80
2023/10/29 08:55:04;;;;;;;11.10;7.00;;;;;;;15.92;100.00;100157.13;1383224;89;21510;-78
2023/10/29 08:57:30;;;;;;;15.53;6.53;;;;;;;15.92;100.00;100162.47;1382254;89;21384;-79
2023/10/29 08:59:56;;;;;;;16.57;8.05;;;;;;;16.03;100.00;100164.65;1382518;89;21377;-80
2023/10/29 09:02:23;;;;;;;12.18;5.50;;;;;;;16.37;100.00;100165.29;1383578;89;21444;-81
2023/10/29 09:04:52;;;;;;;11.93;5.70;;;;;;;16.85;100.00;100167.33;1383204;89;21484;-80
2023/10/29 09:07:17;;;;;;;12.58;5.30;;;;;;;17.36;100.00;100162.50;1386707;89;21511;-80
2023/10/29 09:09:43;;;;;;;10.90;5.05;;;;;;;17.94;100.00;100163.47;1382937;89;21392;-80
2023/10/29 09:12:09;;;;;;;15.03;5.62;;;;;;;18.52;100.00;100160.77;1383016;89;21385;-79
2023/10/29 09:14:35;;;;;;;12.93;5.42;;;;;;;19.14;100.00;100161.66;1389175;89;21400;-80
2023/10/29 09:17:01;;;;;;;8.10;5.22;;;;;;;19.81;100.00;100152.86;1383208;89;21506;-80
2023/10/29 09:19:28;;;;;;;9.90;4.67;;;;;;;20.42;100.00;100154.63;1382754;89;21385;-80
2023/10/29 09:21:54;;;;;;;9.70;5.03;;;;;;;20.76;100.00;100149.84;1536412;89;22427;-80
2023/10/29 09:24:20;;;;;;;11.85;4.85;;;;;;;21.06;100.00;100155.32;1383014;89;21480;-80
2023/10/29 09:26:47;;;;;;;10.72;5.20;;;;;;;21.28;100.00;100148.98;1382590;89;21526;-80
2023/10/29 09:29:13;;;;;;;9.05;4.87;;;;;;;21.49;100.00;100144.53;1382988;89;21362;-81
2023/10/29 09:31:39;;;;;;;7.17;3.90;;;;;;;21.81;100.00;100145.67;1383090;89;22442;-83
2023/10/29 09:34:05;;;;;;;9.15;4.10;;;;;;;22.04;100.00;100144.94;1459034;89;21442;-83
2023/10/29 09:36:31;;;;;;;10.63;4.72;;;;;;;22.26;100.00;100150.62;1535995;89;21429;-84
2023/10/29 09:38:58;;;;;;;11.70;5.78;;;;;;;22.56;100.00;100142.98;1368506;91;22242;-81
2023/10/29 09:41:24;;;;;;;9.30;4.30;;;;;;;22.79;100.00;100141.67;1353299;92;22219;-80
2023/10/29 09:43:53;;;;;;;9.48;3.77;;;;;;;22.93;100.00;100152.52;1383208;89;21553;-80
2023/10/29 09:46:21;;;;;;;8.28;4.20;;;;;;;23.15;100.00;100157.33;1380169;89;21385;-80
2023/10/29 09:48:48;;;;;;;10.40;4.12;;;;;;;23.23;100.00;100158.84;1410857;89;21649;-82
2023/10/29 09:51:15;;;;;;;13.25;5.37;;;;;;;23.19;100.00;100151.77;1424755;89;21611;-81
2023/10/29 09:53:42;;;;;;;11.05;4.50;;;;;;;23.25;100.00;100153.50;1455711;89;21539;-81
2023/10/29 09:56:09;;;;;;;11.03;4.15;;;;;;;23.07;100.00;100146.88;1457566;89;21471;-79
2023/10/29 09:58:44;;;;;;;12.10;4.58;;;;;;;23.10;100.00;100149.11;1437550;89;21502;-80
2023/10/29 10:01:12;;;;;;;11.83;4.08;;;;;;;23.17;100.00;100155.22;1450831;89;21517;-81
2023/10/29 10:03:38;;;;;;;10.35;3.77;;;;;;;23.19;100.00;100146.36;1454304;89;21524;-84
2023/10/29 10:06:06;;;;;;;8.43;3.50;;;;;;;23.29;100.00;100151.96;1452500;89;21480;-81
2023/10/29 10:08:35;;;;;;;9.00;3.47;;;;;;;23.27;100.00;100147.31;1440539;89;21505;-84
2023/10/29 10:11:02;;;;;;;13.10;4.13;;;;;;;23.38;100.00;100150.52;1456773;89;21494;-81
2023/10/29 10:13:41;;;;;;;7.97;4.12;;;;;;;23.50;100.00;100150.48;1460307;89;21479;-83
2023/10/29 10:16:14;;;;;;;6.47;3.50;;;;;;;23.52;100.00;100147.56;1460963;89;21398;-83
2023/10/29 10:18:58;;;;;;;7.83;4.28;;;;;;;23.62;100.00;100139.64;1542965;89;21467;-83
2023/10/29 10:21:28;;;;;;;9.70;3.87;;;;;;;23.47;100.00;100138.81;1542143;89;21341;-82
2023/10/29 10:23:58;;;;;;;6.67;2.90;;;;;;;23.34;100.00;100135.87;1415183;89;22250;-82
2023/10/29 10:26:34;;;;;;;10.18;3.70;;;;;;;23.12;100.00;100142.42;1405870;89;21486;-81
2023/10/29 10:29:07;;;;;;;15.85;5.10;;;;;;;22.98;67.05;100145.08;1436891;89;21487;-85
2023/10/29 10:31:35;;;;;;;9.05;2.90;;;;;;;23.01;65.99;100144.60;1453332;89;22895;-83
2023/10/29 10:34:18;;;;;;;10.30;3.47;;;;;;;23.14;59.43;100150.30;1458103;89;21420;-83
2023/10/29 10:36:53;;;;;;;7.60;3.15;;;;;;;23.20;58.42;100145.30;1457629;89;21623;-84
2023/10/29 10:39:17;;;;;;;13.85;3.27;;;;;;;23.27;57.62;100145.16;1453797;89;22558;-84
2023/10/29 10:41:46;;;;;;;7.53;3.27;;;;;;;23.19;57.34;100140.96;1440678;89;21442;-83
2023/10/29 10:44:16;;;;;;;6.87;2.50;;;;;;;23.05;57.04;100134.17;1451947;89;21621;-84
2023/10/29 10:46:51;;;;;;;8.18;3.37;;;;;;;22.70;56.50;100132.27;1458145;89;21583;-82
2023/10/29 10:49:19;;;;;;;8.08;3.10;;;;;;;22.47;57.21;100135.77;1457927;89;21539;-85
2023/10/29 10:51:55;;;;;;;8.38;2.77;;;;;;;22.17;57.23;100135.81;1456504;89;21531;-83
2023/10/29 10:54:23;;;;;;;7.35;2.40;;;;;;;22.22;56.43;100122.51;1456987;89;23114;-85
2023/10/29 10:56:52;;;;;;;7.58;2.77;;;;;;;22.15;56.76;100127.12;1452598;89;21458;-82
2023/10/29 10:59:20;;;;;;;12.15;2.70;;;;;;;21.96;56.81;100123.17;1443656;89;21575;-82
2023/10/29 11:01:50;;;;;;;7.20;2.60;;;;;;;21.84;57.35;100121.79;1416378;89;21567;-82
2023/10/29 11:04:18;;;;;;;7.65;2.90;;;;;;;21.89;57.51;100113.00;1458069;89;22463;-82
2023/10/29 11:06:45;;;;;;;11.97;2.55;;;;;;;21.91;57.88;100118.99;1460810;89;21465;-83
2023/10/29 11:09:13;;;;;;;6.50;2.98;;;;;;;22.09;58.28;100113.52;1452343;89;21517;-82
2023/10/29 11:11:53;;;;;;;9.63;3.15;;;;;;;22.24;57.38;100113.64;1461109;89;21547;-80
2023/10/29 11:14:20;;;;;;;;;;;;;;;22.22;56.28;100109.03;1465161;89;21463;-83
2023/10/29 11:16:56;;;;;;;11.20;3.00;;;;;;;22.21;54.80;100118.15;1462462;89;20306;-82
2023/10/29 11:19:47;;;;;;;7.30;2.40;;;;;;;22.37;56.66;100103.19;1531155;89;22265;-82